Time;durP1;ratioP1;P1;durP2;ratioP2;P2;SDS_P1;SDS_P2;PMS_P1;PMS_P2;Temp;Humidity;BMP_temperature;BMP_pressure;BME280_temperature;BME280_humidity;BME280_pressure;Samples;Min_cycle;Max_cycle;Signal;HPM_P1;HPM_P2
2024/03/17 00:00:34;;;;;;;7.82;4.32;;;;;;;7.34;81.35;99328.88;5008881;27;103278;-67
2024/03/17 00:03:00;;;;;;;7.22;3.90;;;;;;;7.30;80.50;99335.38;4987470;28;102835;-67
2024/03/17 00:05:26;;;;;;;5.13;3.30;;;;;;;7.30;80.27;99333.56;4991040;27;102821;-67
2024/03/17 00:07:54;;;;;;;5.70;2.92;;;;;;;7.36;80.10;99332.19;4997333;28;104761;-67
2024/03/17 00:10:19;;;;;;;6.03;3.20;;;;;;;7.44;80.07;99344.72;4995338;28;103250;-67
2024/03/17 00:12:45;;;;;;;7.30;3.63;;;;;;;7.47;79.56;99336.56;5006623;27;103051;-67
2024/03/17 00:15:11;;;;;;;6.80;3.65;;;;;;;7.41;79.45;99335.28;5008503;27;102911;-67
2024/03/17 00:17:37;;;;;;;10.48;4.53;;;;;;;7.11;79.61;99326.44;4999475;27;105307;-66
2024/03/17 00:20:08;;;;;;;6.45;3.10;;;;;;;7.22;80.06;99329.91;4988757;28;103113;-67
2024/03/17 00:22:39;;;;;;;7.68;3.58;;;;;;;7.26;79.83;99339.25;5008556;27;102873;-67
2024/03/17 00:25:07;;;;;;;9.65;4.50;;;;;;;6.66;81.33;99339.84;5009467;27;103118;-67
2024/03/17 00:27:39;;;;;;;8.68;4.78;;;;;;;6.22;83.46;99342.53;4988004;27;103365;-67
2024/03/17 00:30:12;;;;;;;10.02;4.97;;;;;;;6.29;84.24;99342.88;5006268;28;103237;-67
2024/03/17 00:32:41;;;;;;;6.57;4.13;;;;;;;6.65;83.66;99327.63;4991255;28;102767;-67
2024/03/17 00:35:08;;;;;;;10.52;4.03;;;;;;;6.80;82.35;99331.63;4991453;28;102851;-67
2024/03/17 00:37:34;;;;;;;11.38;5.68;;;;;;;6.59;81.85;99328.13;5005960;27;103426;-67
2024/03/17 00:40:03;;;;;;;9.73;5.05;;;;;;;6.59;82.29;99329.00;5007949;28;103148;-67
2024/03/17 00:42:29;;;;;;;10.55;6.05;;;;;;;6.55;82.54;99321.47;4987925;27;102704;-67
2024/03/17 00:44:56;;;;;;;12.50;7.00;;;;;;;6.25;83.42;99321.25;4988820;28;102814;-67
2024/03/17 00:47:24;;;;;;;9.82;4.90;;;;;;;6.50;82.66;99318.38;5004175;27;104845;-67
2024/03/17 00:49:50;;;;;;;8.23;4.45;;;;;;;6.55;83.06;99326.72;4991569;28;103131;-67
2024/03/17 00:52:16;;;;;;;7.45;4.40;;;;;;;6.72;82.56;99318.28;5005145;27;102791;-67
2024/03/17 00:54:44;;;;;;;6.95;4.38;;;;;;;6.71;82.22;99311.34;4988986;27;102759;-68
2024/03/17 00:57:10;;;;;;;7.50;4.00;;;;;;;6.78;81.65;99316.94;4988566;28;103269;-67
2024/03/17 00:59:36;;;;;;;7.90;5.30;;;;;;;6.64;81.29;99315.44;5006799;27;103146;-67
2024/03/17 01:02:04;;;;;;;8.25;4.78;;;;;;;6.37;82.68;99313.31;5007135;27;102855;-67
2024/03/17 01:04:33;;;;;;;6.57;4.32;;;;;;;6.58;81.88;99305.44;5006809;27;102783;-67
2024/03/17 01:07:00;;;;;;;10.93;5.00;;;;;;;6.49;82.27;99306.19;5012690;27;104879;-67
2024/03/17 01:09:25;;;;;;;6.40;3.67;;;;;;;6.58;81.82;99310.69;5006171;27;103274;-67
2024/03/17 01:11:51;;;;;;;7.30;4.80;;;;;;;6.53;81.47;99313.69;5005263;27;102674;-67
2024/03/17 01:14:17;;;;;;;5.78;3.63;;;;;;;6.67;81.33;99315.19;4990936;28;102755;-67
2024/03/17 01:16:42;;;;;;;7.85;4.53;;;;;;;6.65;80.60;99301.31;5003081;27;103819;-66
2024/03/17 01:19:10;;;;;;;13.10;4.90;;;;;;;6.68;80.55;99306.34;4991395;28;103759;-66
2024/03/17 01:21:38;;;;;;;9.20;4.55;;;;;;;6.72;81.15;99301.63;4990181;27;102813;-66
2024/03/17 01:24:06;;;;;;;7.18;4.30;;;;;;;6.72;80.31;99307.75;5005934;27;102817;-73
2024/03/17 01:26:35;;;;;;;9.02;4.95;;;;;;;6.60;79.10;99299.09;5005532;27;103220;-72
2024/03/17 01:29:01;;;;;;;8.27;5.18;;;;;;;6.15;80.92;99299.28;4988329;28;103478;-72
2024/03/17 01:31:32;;;;;;;10.60;4.60;;;;;;;6.34;80.79;99293.34;4988919;27;102732;-73
2024/03/17 01:33:58;;;;;;;7.72;4.53;;;;;;;6.33;81.32;99299.56;5004286;27;102797;-73
2024/03/17 01:36:23;;;;;;;9.85;5.10;;;;;;;6.06;81.35;99290.31;5007094;27;103272;-72
2024/03/17 01:38:49;;;;;;;7.95;4.97;;;;;;;6.10;81.99;99291.75;5004968;28;103192;-73
2024/03/17 01:41:18;;;;;;;9.63;4.97;;;;;;;6.08;81.47;99293.69;4985404;28;104032;-73
2024/03/17 01:43:43;;;;;;;8.63;4.43;;;;;;;6.22;82.34;99289.09;4987766;27;103278;-73
2024/03/17 01:46:15;;;;;;;12.15;5.45;;;;;;;6.26;81.41;99285.22;5002088;28;103899;-73
2024/03/17 01:48:42;;;;;;;11.07;5.32;;;;;;;5.91;81.92;99281.03;5004922;27;103343;-73
2024/03/17 01:51:10;;;;;;;7.28;4.10;;;;;;;6.13;81.63;99281.00;5005406;27;102791;-73
2024/03/17 01:53:37;;;;;;;7.13;3.65;;;;;;;6.19;81.22;99271.75;5006922;27;102772;-73
2024/03/17 01:56:04;;;;;;;5.88;3.35;;;;;;;6.21;81.27;99274.25;4977776;28;106505;-73
2024/03/17 01:58:33;;;;;;;6.30;3.55;;;;;;;6.26;80.80;99266.81;5005779;27;103457;-72
2024/03/17 02:00:58;;;;;;;6.97;4.60;;;;;;;5.99;80.72;99262.88;5005225;27;102745;-73
2024/03/17 02:03:24;;;;;;;11.35;4.45;;;;;;;6.10;81.26;99264.63;5011436;27;102731;-72
2024/03/17 02:05:50;;;;;;;6.47;4.13;;;;;;;6.08;81.00;99261.28;4995336;28;103500;-74
2024/03/17 02:08:16;;;;;;;10.20;4.43;;;;;;;5.88;81.55;99260.25;5013307;28;103364;-73
2024/03/17 02:10:41;;;;;;;8.57;4.05;;;;;;;5.64;82.79;99248.94;4993799;27;102805;-73
2024/03/17 02:13:09;;;;;;;6.93;3.97;;;;;;;5.88;82.18;99249.72;4994270;28;102859;-73
2024/03/17 02:15:35;;;;;;;7.47;4.63;;;;;;;5.68;82.48;99243.47;4981594;27;105373;-74
2024/03/17 02:18:01;;;;;;;9.32;5.00;;;;;;;5.65;83.04;99239.28;4978342;28;103806;-73
2024/03/17 02:23:11;;;;;;;7.30;4.60;;;;;;;5.37;83.54;99245.88;5010863;27;102758;-74
2024/03/17 02:25:37;;;;;;;7.50;4.72;;;;;;;5.13;84.17;99239.81;5010673;27;103426;-73
2024/03/17 02:28:02;;;;;;;9.00;5.53;;;;;;;5.27;84.28;99236.09;5008427;28;103197;-74
2024/03/17 02:30:28;;;;;;;56.03;7.15;;;;;;;5.13;84.65;99234.56;5010040;27;102830;-72
2024/03/17 02:32:54;;;;;;;75.63;7.55;;;;;;;5.06;85.00;99238.63;5014469;28;102676;-74
2024/03/17 02:35:26;;;;;;;194.68;9.82;;;;;;;5.19;85.51;99237.66;4993275;28;106417;-73
2024/03/17 02:37:52;;;;;;;319.55;11.43;;;;;;;4.96;86.15;99240.31;4994219;28;107681;-73
2024/03/17 02:40:18;;;;;;;579.30;17.92;;;;;;;4.95;86.84;99241.25;4992474;28;102888;-73
2024/03/17 02:42:45;;;;;;;495.70;18.75;;;;;;;5.07;87.15;99221.06;4993985;28;103209;-73
2024/03/17 02:45:14;;;;;;;298.40;11.80;;;;;;;5.08;87.41;99235.88;5010298;28;103355;-73
2024/03/17 02:47:45;;;;;;;130.57;7.00;;;;;;;5.30;87.03;99235.03;5012048;27;103090;-74
2024/03/17 02:50:10;;;;;;;223.65;12.60;;;;;;;5.40;86.50;99229.91;4996810;27;102878;-74
2024/03/17 02:52:36;;;;;;;311.25;13.93;;;;;;;5.31;86.67;99231.47;4990752;27;102695;-73
2024/03/17 02:55:02;;;;;;;327.92;13.52;;;;;;;5.11;86.63;99223.34;4993336;28;104311;-74
2024/03/17 02:57:32;;;;;;;67.43;7.85;;;;;;;5.29;86.95;99228.09;4995189;27;105712;-73
2024/03/17 03:00:00;;;;;;;26.73;9.38;;;;;;;5.40;87.00;99225.47;4990546;28;103150;-75
2024/03/17 03:02:28;;;;;;;121.75;11.73;;;;;;;5.26;86.29;99228.34;5007333;27;102883;-73
2024/03/17 03:04:53;;;;;;;81.13;11.15;;;;;;;5.24;86.78;99225.84;4995315;28;105733;-73
2024/03/17 03:07:19;;;;;;;126.28;10.63;;;;;;;5.25;86.18;99222.28;4991230;28;106163;-73
2024/03/17 03:09:47;;;;;;;365.10;13.30;;;;;;;5.05;86.04;99225.63;5007838;27;103174;-74
2024/03/17 03:12:13;;;;;;;297.92;13.45;;;;;;;5.10;86.21;99233.97;5012289;27;103073;-73
2024/03/17 03:14:41;;;;;;;263.70;12.38;;;;;;;5.10;86.47;99228.72;4993572;27;103187;-73
2024/03/17 03:17:07;;;;;;;288.67;12.63;;;;;;;4.92;86.75;99231.81;5010879;27;103238;-73
2024/03/17 03:19:32;;;;;;;170.23;11.25;;;;;;;5.14;86.76;99230.97;5009615;27;102585;-73
2024/03/17 03:21:58;;;;;;;24.50;8.38;;;;;;;5.40;86.84;99227.28;5013441;28;102956;-74
2024/03/17 03:24:24;;;;;;;24.35;8.57;;;;;;;5.51;86.23;99229.88;4991223;27;105510;-73
2024/03/17 03:26:49;;;;;;;40.90;8.52;;;;;;;5.65;86.30;99231.41;5013767;28;103196;-74
2024/03/17 03:29:15;;;;;;;12.60;6.38;;;;;;;5.73;85.74;99228.97;5010118;27;102844;-74
2024/03/17 03:31:41;;;;;;;135.55;11.68;;;;;;;5.72;85.39;99224.66;5006765;27;103039;-74
2024/03/17 03:34:10;;;;;;;473.00;17.00;;;;;;;5.11;85.14;99218.09;5009914;28;103097;-74
2024/03/17 03:36:41;;;;;;;616.10;17.70;;;;;;;5.09;85.67;99219.19;5009538;27;104067;-74
2024/03/17 03:39:11;;;;;;;44.15;6.10;;;;;;;5.26;86.16;99223.09;5011081;28;103893;-74
2024/03/17 03:41:38;;;;;;;154.30;9.20;;;;;;;5.36;86.02;99226.69;5007612;27;102991;-74
2024/03/17 03:44:06;;;;;;;115.85;8.23;;;;;;;5.41;85.43;99229.78;4990117;28;103595;-74
2024/03/17 03:46:31;;;;;;;294.77;11.95;;;;;;;5.18;86.05;99225.50;5012152;28;103537;-74
2024/03/17 03:48:59;;;;;;;255.65;11.57;;;;;;;5.18;85.58;99220.25;4999241;28;102734;-74
2024/03/17 03:51:25;;;;;;;310.35;11.80;;;;;;;5.01;85.56;99209.28;4995590;27;102746;-74
2024/03/17 03:53:53;;;;;;;71.43;6.85;;;;;;;5.18;86.05;99215.00;5010821;28;102850;-74
2024/03/17 03:56:20;;;;;;;169.27;12.23;;;;;;;4.99;85.66;99219.06;4990595;28;103257;-75
2024/03/17 03:58:49;;;;;;;219.90;9.57;;;;;;;4.77;85.91;99218.09;5004395;27;102783;-74
2024/03/17 04:01:21;;;;;;;308.25;12.18;;;;;;;4.59;85.99;99214.28;5012328;28;102721;-73
2024/03/17 04:03:47;;;;;;;102.40;6.20;;;;;;;4.61;86.83;99212.34;5007084;27;103787;-74
2024/03/17 04:06:13;;;;;;;381.20;13.23;;;;;;;4.61;86.23;99220.22;4999600;28;106848;-74
2024/03/17 04:08:42;;;;;;;89.38;6.10;;;;;;;4.65;86.44;99214.63;5017000;27;102775;-74
2024/03/17 04:11:08;;;;;;;47.10;6.10;;;;;;;4.77;86.48;99217.28;5010107;27;102870;-75
2024/03/17 04:13:36;;;;;;;130.88;7.60;;;;;;;4.74;85.75;99218.34;4993266;27;103882;-74
2024/03/17 04:16:06;;;;;;;132.05;6.70;;;;;;;4.58;86.41;99217.84;5007815;28;102808;-74
2024/03/17 04:18:34;;;;;;;55.50;5.05;;;;;;;4.63;86.29;99215.69;4976129;27;103677;-74
2024/03/17 04:21:07;;;;;;;385.48;12.30;;;;;;;4.29;85.98;99215.63;5013915;28;102903;-74
2024/03/17 04:23:33;;;;;;;150.82;8.38;;;;;;;4.23;86.53;99223.97;4990916;27;102765;-74
2024/03/17 04:26:00;;;;;;;122.15;7.95;;;;;;;4.31;86.83;99226.84;5009846;27;103312;-75
2024/03/17 04:28:27;;;;;;;35.90;4.65;;;;;;;4.56;86.17;99219.72;4984061;27;102702;-74
2024/03/17 04:30:52;;;;;;;38.55;4.53;;;;;;;4.73;86.09;99219.28;5010560;28;102787;-75
2024/03/17 04:33:18;;;;;;;160.38;7.07;;;;;;;4.45;85.61;99217.94;4975318;28;106023;-74
2024/03/17 04:35:44;;;;;;;23.70;4.32;;;;;;;4.52;85.83;99213.06;4992740;27;103061;-74
2024/03/17 04:38:10;;;;;;;146.82;8.77;;;;;;;4.54;85.60;99216.41;5005061;27;102694;-75
2024/03/17 04:40:42;;;;;;;255.90;8.90;;;;;;;4.16;85.50;99220.97;5008544;27;102757;-74
2024/03/17 04:43:08;;;;;;;268.00;8.45;;;;;;;3.98;86.64;99215.28;5007926;27;103156;-74
2024/03/17 04:45:34;;;;;;;238.52;8.43;;;;;;;4.02;86.56;99216.72;5006479;27;103271;-74
2024/03/17 04:48:00;;;;;;;200.60;8.10;;;;;;;4.18;86.18;99221.69;5006004;27;102756;-74
2024/03/17 04:50:26;;;;;;;125.53;6.55;;;;;;;4.15;86.01;99219.28;4981071;28;103347;-73
2024/03/17 04:52:52;;;;;;;86.15;6.07;;;;;;;3.92;86.69;99221.00;4998250;28;103268;-74
2024/03/17 04:55:18;;;;;;;87.65;5.38;;;;;;;3.94;86.63;99221.72;5007197;28;103273;-75
2024/03/17 04:57:46;;;;;;;109.45;6.35;;;;;;;4.03;86.57;99226.28;5007624;27;102623;-74
2024/03/17 05:00:13;;;;;;;11.75;4.32;;;;;;;4.22;86.30;99232.75;4989370;27;102652;-75
2024/03/17 05:02:40;;;;;;;282.33;11.50;;;;;;;3.88;86.38;99232.63;5006329;28;103325;-73
2024/03/17 05:05:08;;;;;;;202.80;8.93;;;;;;;4.10;86.94;99224.88;5001665;27;103439;-73
2024/03/17 05:07:34;;;;;;;361.15;11.32;;;;;;;3.73;87.23;99222.31;5008779;27;102771;-73
2024/03/17 05:10:00;;;;;;;106.35;6.95;;;;;;;4.04;87.88;99219.25;5004316;27;102722;-73
2024/03/17 05:12:26;;;;;;;390.77;13.95;;;;;;;3.93;87.32;99225.28;4992262;27;105228;-73
2024/03/17 05:14:52;;;;;;;244.25;9.15;;;;;;;3.90;87.63;99226.31;5010230;28;103242;-74
2024/03/17 05:17:17;;;;;;;375.20;12.82;;;;;;;3.74;87.49;99226.63;5005890;27;104597;-73
2024/03/17 05:19:43;;;;;;;337.58;10.80;;;;;;;3.65;88.06;99219.44;5003948;27;102929;-73
2024/03/17 05:22:10;;;;;;;476.50;16.65;;;;;;;3.72;88.48;99225.91;5011418;28;103362;-74
2024/03/17 05:24:36;;;;;;;340.08;12.80;;;;;;;3.83;88.26;99230.38;5001423;27;103803;-74
2024/03/17 05:27:02;;;;;;;60.92;7.15;;;;;;;4.18;88.77;99231.31;4974020;28;102838;-74
2024/03/17 05:29:27;;;;;;;478.58;14.95;;;;;;;4.22;87.79;99232.75;4997270;27;102782;-74
2024/03/17 05:31:53;;;;;;;373.35;15.10;;;;;;;4.20;87.73;99234.69;4987617;28;105483;-74
2024/03/17 05:34:19;;;;;;;237.68;11.60;;;;;;;4.26;87.67;99234.22;4988576;28;104339;-74
2024/03/17 05:36:46;;;;;;;138.70;11.25;;;;;;;4.50;87.66;99234.16;5007087;27;102728;-74
2024/03/17 05:39:12;;;;;;;35.97;7.63;;;;;;;4.56;87.47;99238.09;5000352;27;103039;-75
2024/03/17 05:41:43;;;;;;;199.90;10.07;;;;;;;4.46;87.04;99237.97;5005361;27;103260;-74
2024/03/17 05:44:11;;;;;;;340.60;14.77;;;;;;;4.21;86.88;99236.34;4984129;28;104502;-75
2024/03/17 05:46:39;;;;;;;98.60;7.00;;;;;;;4.28;87.45;99234.94;4988247;27;103091;-74
2024/03/17 05:49:06;;;;;;;291.85;13.80;;;;;;;4.27;87.77;99225.38;5007420;28;103937;-75
2024/03/17 05:51:32;;;;;;;169.05;10.18;;;;;;;4.42;87.59;99226.88;5006596;27;102933;-75
2024/03/17 05:54:05;;;;;;;353.77;14.82;;;;;;;4.31;87.11;99237.34;4985455;28;103204;-74
2024/03/17 05:56:30;;;;;;;236.95;11.23;;;;;;;4.39;87.72;99226.25;5002897;27;102680;-75
2024/03/17 05:58:56;;;;;;;87.70;6.75;;;;;;;4.46;87.48;99220.44;4997046;27;104197;-74
2024/03/17 06:01:22;;;;;;;453.23;15.68;;;;;;;4.29;87.03;99229.56;5006239;27;103250;-75
2024/03/17 06:03:48;;;;;;;230.02;10.85;;;;;;;4.43;87.90;99227.72;4997996;27;104812;-74
2024/03/17 06:06:14;;;;;;;210.15;11.52;;;;;;;4.61;87.60;99223.69;5002211;27;102822;-74
2024/03/17 06:08:39;;;;;;;332.98;14.43;;;;;;;4.52;86.99;99226.16;4996861;27;102913;-74
2024/03/17 06:11:06;;;;;;;148.10;8.65;;;;;;;4.41;87.23;99217.31;4967705;28;103524;-73
2024/03/17 06:13:37;;;;;;;283.35;11.65;;;;;;;4.35;87.89;99220.44;4977688;28;103384;-74
2024/03/17 06:16:04;;;;;;;408.95;14.98;;;;;;;4.35;87.95;99207.31;4996808;27;102801;-75
2024/03/17 06:18:30;;;;;;;77.47;7.88;;;;;;;4.64;88.08;99212.13;4985932;28;102775;-74
2024/03/17 06:21:05;;;;;;;25.48;6.57;;;;;;;4.92;87.59;99220.50;5003291;28;103313;-75
2024/03/17 06:23:30;;;;;;;16.33;6.60;;;;;;;5.10;87.43;99213.81;4995147;27;104944;-74
2024/03/17 06:25:59;;;;;;;135.80;8.65;;;;;;;5.03;87.05;99217.03;4996676;28;102871;-74
2024/03/17 06:28:26;;;;;;;208.65;10.30;;;;;;;5.14;86.45;99212.59;4998215;27;102837;-74
2024/03/17 06:30:59;;;;;;;579.78;17.92;;;;;;;4.81;86.45;99222.16;4983274;28;103421;-74
2024/03/17 06:33:26;;;;;;;190.88;9.48;;;;;;;4.82;87.14;99213.34;4979880;27;103680;-74
2024/03/17 06:35:51;;;;;;;45.55;7.93;;;;;;;5.24;87.71;99211.88;4986013;28;103109;-75
2024/03/17 06:38:19;;;;;;;27.60;6.72;;;;;;;5.48;87.36;99209.94;4996900;27;102738;-75
2024/03/17 06:40:53;;;;;;;23.00;6.80;;;;;;;5.62;86.53;99213.22;4980887;27;103317;-74
2024/03/17 06:43:24;;;;;;;505.70;16.17;;;;;;;5.11;85.67;99212.84;4967352;27;103394;-74
2024/03/17 06:45:57;;;;;;;487.48;17.08;;;;;;;5.05;86.40;99210.69;4999479;28;102722;-73
2024/03/17 06:48:26;;;;;;;159.77;13.48;;;;;;;5.42;86.71;99207.81;5004204;27;103416;-73
2024/03/17 06:50:56;;;;;;;238.63;12.43;;;;;;;5.32;86.58;99217.38;4992125;27;103722;-75
2024/03/17 06:53:23;;;;;;;45.08;6.70;;;;;;;5.51;86.31;99221.16;5007685;28;103253;-74
2024/03/17 06:55:59;;;;;;;79.25;6.85;;;;;;;5.79;86.18;99217.97;4988504;28;103171;-74
2024/03/17 06:58:29;;;;;;;23.90;7.03;;;;;;;6.01;86.30;99213.59;5003954;27;102807;-74
2024/03/17 07:00:57;;;;;;;73.30;8.40;;;;;;;6.18;85.81;99214.84;4969329;28;103397;-76
2024/03/17 07:03:25;;;;;;;199.52;11.68;;;;;;;6.08;85.08;99206.91;4974633;28;105528;-71
2024/03/17 07:05:57;;;;;;;9.85;6.07;;;;;;;6.23;85.57;99212.66;4990346;28;102733;-75
2024/03/17 07:08:24;;;;;;;171.18;13.85;;;;;;;6.26;85.27;99212.44;4984078;27;103153;-76
2024/03/17 07:11:00;;;;;;;13.38;5.93;;;;;;;6.46;85.25;99207.28;4990019;28;107678;-75
2024/03/17 07:13:28;;;;;;;62.88;8.52;;;;;;;6.73;84.37;99209.34;5006426;27;103128;-76
2024/03/17 07:15:53;;;;;;;160.77;11.82;;;;;;;6.64;82.22;99202.25;4989977;28;102829;-75
2024/03/17 07:18:21;;;;;;;339.38;12.10;;;;;;;5.80;84.32;99206.50;4986962;28;103164;-77
2024/03/17 07:20:50;;;;;;;47.28;8.57;;;;;;;5.95;86.04;99206.22;4993568;28;102815;-78
2024/03/17 07:23:15;;;;;;;115.28;10.90;;;;;;;6.22;85.61;99204.91;4993935;28;105683;-76
2024/03/17 07:25:42;;;;;;;148.05;11.20;;;;;;;5.98;85.70;99212.06;4984411;28;104145;-77
2024/03/17 07:28:09;;;;;;;332.52;12.63;;;;;;;5.60;86.44;99209.91;4990063;27;102771;-74
2024/03/17 07:30:46;;;;;;;318.52;13.55;;;;;;;5.84;86.28;99214.13;5002959;27;103668;-75
2024/03/17 07:33:11;;;;;;;50.13;7.53;;;;;;;6.22;86.62;99211.03;5008408;27;103940;-75
2024/03/17 07:35:46;;;;;;;16.35;8.70;;;;;;;6.53;86.85;99208.44;4985245;27;102789;-75
2024/03/17 07:38:12;;;;;;;155.07;11.57;;;;;;;6.35;84.77;99205.53;5006898;27;102728;-74
2024/03/17 07:40:37;;;;;;;46.92;10.43;;;;;;;6.49;85.65;99200.94;4982067;27;106901;-72
2024/03/17 07:43:03;;;;;;;68.55;10.35;;;;;;;6.43;86.03;99197.00;5005681;28;105042;-72
2024/03/17 07:45:29;;;;;;;16.50;9.68;;;;;;;6.73;85.86;99201.47;4995644;27;104342;-72
2024/03/17 07:47:58;;;;;;;21.70;9.93;;;;;;;6.68;85.21;99201.06;4974110;28;102740;-72
2024/03/17 07:50:24;;;;;;;13.73;9.13;;;;;;;7.37;86.24;99191.56;4999451;27;103801;-72
2024/03/17 07:52:50;;;;;;;16.90;10.48;;;;;;;7.27;84.42;99201.25;4993765;28;103266;-72
2024/03/17 07:55:16;;;;;;;14.98;10.23;;;;;;;7.01;85.82;99200.88;4974110;28;102808;-73
2024/03/17 07:57:41;;;;;;;13.85;10.27;;;;;;;6.95;85.26;99199.63;4973414;28;103286;-72
2024/03/17 08:00:15;;;;;;;20.35;9.25;;;;;;;7.01;84.19;99201.75;4997181;27;103319;-72
2024/03/17 08:02:50;;;;;;;12.20;9.07;;;;;;;7.68;85.87;99202.03;4974103;27;103449;-73
2024/03/17 08:05:18;;;;;;;13.85;9.60;;;;;;;7.87;82.47;99197.75;4968626;28;103871;-72
2024/03/17 08:07:45;;;;;;;12.65;9.05;;;;;;;8.50;80.88;99194.66;4987087;27;102832;-72
2024/03/17 08:10:10;;;;;;;12.52;7.45;;;;;;;8.86;80.81;99194.00;4974516;28;105427;-72
2024/03/17 08:12:36;;;;;;;17.55;8.90;;;;;;;8.96;80.12;99184.22;4993258;27;105239;-72
2024/03/17 08:15:02;;;;;;;11.55;7.35;;;;;;;9.28;79.37;99177.66;4995414;28;102758;-72
2024/03/17 08:17:31;;;;;;;11.93;6.57;;;;;;;9.35;77.84;99181.38;4998599;27;102816;-73
2024/03/17 08:20:00;;;;;;;12.70;7.50;;;;;;;8.53;79.84;99190.88;4979640;27;103284;-71
2024/03/17 08:22:27;;;;;;;12.35;7.85;;;;;;;8.61;78.24;99183.13;5003318;27;103450;-72
2024/03/17 08:24:53;;;;;;;11.15;6.57;;;;;;;8.91;79.48;99181.19;5003444;27;102714;-72
2024/03/17 08:27:19;;;;;;;11.88;7.57;;;;;;;8.79;78.32;99184.03;4988585;28;102775;-72
2024/03/17 08:29:45;;;;;;;11.02;7.38;;;;;;;9.17;78.89;99183.16;4998780;27;103211;-73
2024/03/17 08:32:10;;;;;;;11.85;7.47;;;;;;;9.33;78.01;99195.72;5002977;28;103247;-73
2024/03/17 08:34:36;;;;;;;11.00;7.00;;;;;;;9.44;78.16;99198.97;4987118;27;102986;-73
2024/03/17 08:37:02;;;;;;;12.00;8.60;;;;;;;9.63;76.92;99195.41;4998130;27;102892;-72
2024/03/17 08:39:28;;;;;;;10.57;6.78;;;;;;;9.84;76.44;99204.00;4999918;27;109375;-73
2024/03/17 08:41:53;;;;;;;9.45;6.18;;;;;;;9.81;75.96;99189.28;5006670;27;103352;-72
2024/03/17 08:44:19;;;;;;;8.75;6.80;;;;;;;9.92;75.91;99186.41;4985440;28;102853;-73
2024/03/17 08:46:45;;;;;;;9.50;7.05;;;;;;;10.09;75.44;99182.09;4984221;27;104325;-73
2024/03/17 08:49:13;;;;;;;9.73;6.35;;;;;;;10.21;75.41;99180.03;4984801;28;103524;-73
2024/03/17 08:51:38;;;;;;;10.52;7.15;;;;;;;10.09;75.10;99176.78;4973149;28;106006;-71
2024/03/17 08:54:07;;;;;;;10.20;6.70;;;;;;;9.84;74.12;99182.84;4962639;28;104690;-71
2024/03/17 08:56:34;;;;;;;10.82;6.90;;;;;;;10.43;74.55;99173.44;5003214;27;103157;-71
2024/03/17 08:58:59;;;;;;;11.65;7.50;;;;;;;10.68;71.41;99165.63;4991430;28;104838;-73
2024/03/17 09:01:27;;;;;;;9.57;6.63;;;;;;;11.04;70.58;99160.16;5006787;27;103309;-73
2024/03/17 09:03:56;;;;;;;10.02;7.13;;;;;;;11.32;69.37;99167.91;4984932;28;103041;-72
2024/03/17 09:06:27;;;;;;;9.73;6.15;;;;;;;11.75;70.01;99173.94;5003763;27;103048;-72
2024/03/17 09:08:52;;;;;;;9.95;6.65;;;;;;;11.81;67.87;99174.28;4968567;28;108695;-72
2024/03/17 09:11:18;;;;;;;9.75;6.60;;;;;;;11.60;70.26;99164.97;4983617;27;103155;-73
2024/03/17 09:13:44;;;;;;;8.35;5.40;;;;;;;11.00;71.05;99164.13;4999449;27;103300;-72
2024/03/17 09:16:11;;;;;;;8.88;6.10;;;;;;;11.11;71.47;99155.88;4977909;28;103824;-72
2024/03/17 09:18:37;;;;;;;9.90;6.47;;;;;;;10.71;69.52;99160.00;5000200;27;106651;-73
2024/03/17 09:21:07;;;;;;;12.95;6.25;;;;;;;11.25;69.34;99157.09;4996950;28;103185;-73
2024/03/17 09:23:36;;;;;;;10.95;6.35;;;;;;;11.31;69.84;99163.56;4961383;28;102745;-71
2024/03/17 09:26:09;;;;;;;8.48;6.00;;;;;;;11.64;70.36;99161.00;4985536;28;103967;-72
2024/03/17 09:28:36;;;;;;;14.15;6.50;;;;;;;11.84;67.74;99144.75;4979188;27;103295;-73
2024/03/17 09:31:02;;;;;;;9.77;5.65;;;;;;;11.94;68.00;99137.47;5002453;28;103332;-72
2024/03/17 09:33:32;;;;;;;7.57;5.18;;;;;;;11.70;68.40;99138.28;4999447;28;103117;-71
2024/03/17 09:36:08;;;;;;;7.85;5.32;;;;;;;12.09;67.67;99146.47;4987947;28;103308;-72
2024/03/17 09:38:35;;;;;;;6.53;4.30;;;;;;;12.32;68.00;99140.44;4994201;27;103548;-73
2024/03/17 09:41:01;;;;;;;8.07;4.55;;;;;;;12.13;64.54;99144.31;5002584;28;103295;-73
2024/03/17 09:43:35;;;;;;;7.22;4.72;;;;;;;12.07;66.75;99143.13;5002928;27;102723;-72
2024/03/17 09:46:05;;;;;;;6.97;4.07;;;;;;;12.33;67.84;99139.47;5004409;28;102858;-72
2024/03/17 09:48:34;;;;;;;9.05;4.50;;;;;;;12.48;65.34;99144.88;4999904;27;103249;-72
2024/03/17 09:51:02;;;;;;;7.07;4.45;;;;;;;12.15;67.86;99144.94;5000504;27;103086;-72
2024/03/17 09:53:29;;;;;;;10.10;4.85;;;;;;;12.34;64.68;99137.63;4982622;27;102738;-72
2024/03/17 09:56:20;;;;;;;10.90;6.03;;;;;;;12.46;67.25;99143.41;4989968;27;102737;-72
2024/03/17 09:58:47;;;;;;;9.80;6.03;;;;;;;11.68;69.32;99150.88;4982497;27;103219;-73
2024/03/17 10:01:15;;;;;;;8.77;5.90;;;;;;;11.74;69.29;99150.25;4996069;28;103448;-73
2024/03/17 10:03:58;;;;;;;8.77;6.03;;;;;;;11.03;70.26;99155.88;4974597;28;102798;-73
2024/03/17 10:06:29;;;;;;;8.90;6.32;;;;;;;11.74;71.11;99150.25;4976774;28;103522;-73
2024/03/17 10:08:58;;;;;;;7.97;5.80;;;;;;;12.04;68.25;99150.59;4962143;28;105399;-71
2024/03/17 10:11:32;;;;;;;8.23;5.20;;;;;;;12.59;67.45;99138.41;4967481;28;103479;-72
2024/03/17 10:14:07;;;;;;;7.65;5.20;;;;;;;13.04;65.39;99141.41;4952098;27;102931;-71
2024/03/17 10:16:38;;;;;;;9.38;5.68;;;;;;;12.17;67.97;99145.63;4975332;27;103207;-72
2024/03/17 10:19:13;;;;;;;7.43;5.07;;;;;;;12.17;66.06;99139.47;4981593;28;103314;-72
2024/03/17 10:21:40;;;;;;;11.57;5.55;;;;;;;11.95;65.38;99136.50;4977485;27;103219;-73
2024/03/17 10:24:11;;;;;;;9.48;5.32;;;;;;;11.55;69.03;99138.09;4999315;27;102818;-73
2024/03/17 10:26:57;;;;;;;8.13;4.80;;;;;;;12.35;65.67;99137.44;4994415;27;103576;-72
2024/03/17 10:29:29;;;;;;;9.52;3.90;;;;;;;12.24;66.08;99141.28;4974246;27;103283;-70
2024/03/17 10:31:57;;;;;;;8.60;4.72;;;;;;;12.17;64.88;99135.00;4978834;28;103251;-71
2024/03/17 10:34:28;;;;;;;11.07;5.63;;;;;;;11.43;68.40;99146.34;5001001;27;104640;-70
2024/03/17 10:37:27;;;;;;;8.63;4.90;;;;;;;11.77;65.59;99145.41;4989659;28;103725;-71
2024/03/17 10:39:59;;;;;;;8.05;4.90;;;;;;;12.13;65.81;99140.81;4975020;28;107845;-71
2024/03/17 10:42:36;;;;;;;6.55;5.13;;;;;;;12.36;67.38;99133.78;4990884;27;105836;-72
2024/03/17 10:45:08;;;;;;;12.98;4.60;;;;;;;12.97;65.57;99143.94;4995653;27;103113;-74
2024/03/17 10:47:37;;;;;;;7.38;4.15;;;;;;;12.53;62.06;99147.06;4991097;27;104645;-72
2024/03/17 10:50:05;;;;;;;8.52;4.70;;;;;;;12.54;63.40;99140.75;4978194;28;103250;-74
2024/03/17 10:52:33;;;;;;;7.82;4.70;;;;;;;12.29;65.26;99143.44;4993614;27;104118;-73
2024/03/17 10:55:07;;;;;;;7.72;4.10;;;;;;;12.66;63.31;99139.38;4985806;27;102876;-72
2024/03/17 10:57:36;;;;;;;7.18;4.03;;;;;;;12.56;62.87;99146.72;4994786;27;103737;-74
2024/03/17 11:00:08;;;;;;;7.82;4.38;;;;;;;12.66;60.46;99150.00;4994639;27;104749;-72
2024/03/17 11:02:36;;;;;;;7.78;4.32;;;;;;;12.50;60.60;99145.56;4976629;27;103283;-71
2024/03/17 11:05:13;;;;;;;6.40;3.83;;;;;;;12.82;61.52;99140.31;4979932;27;102764;-72
2024/03/17 11:07:45;;;;;;;7.53;3.67;;;;;;;12.84;54.69;99135.66;4997439;27;102858;-72
2024/03/17 11:10:20;;;;;;;6.55;3.35;;;;;;;12.46;58.99;99138.94;4978456;28;105007;-72
2024/03/17 11:12:49;;;;;;;6.55;3.05;;;;;;;13.84;55.69;99132.28;4973843;27;107662;-73
2024/03/17 11:15:18;;;;;;;6.63;3.58;;;;;;;13.39;56.44;99139.25;4971416;28;102957;-74
2024/03/17 11:17:47;;;;;;;6.05;3.45;;;;;;;13.26;58.61;99126.50;4990125;27;104236;-74
2024/03/17 11:20:15;;;;;;;11.55;3.53;;;;;;;13.20;55.13;99129.84;4982887;27;103044;-74
2024/03/17 11:22:56;;;;;;;8.15;2.92;;;;;;;13.56;56.51;99118.69;4998474;27;103296;-75
2024/03/17 11:25:31;;;;;;;5.85;3.33;;;;;;;13.61;53.35;99121.63;4976658;28;103144;-76
2024/03/17 11:27:58;;;;;;;4.93;2.78;;;;;;;12.99;53.06;99123.28;4989180;27;102801;-75